Alexander 3 — SW6137 — position and weather

sailwx.info

Track history (hours):
 
Tides and Currents Weather Stations Pressure Air Temp Water Temp Dewpoint Dewpoint Depression Visibility Wind Speed Wind Dir Waves Ship Positions

Alexander 3

Last reported at 2016-Dec-05 17:08 UTC. Time now 2016-Dec-05 18:38 UTC.
Position N 37°56' E 023°38'.

Length 28 m; draft 5.6 m.

Type: Tug. MMSI: 240733000.

Date/timePositionNaut miles runAvg speedWind from/ knotsBaromVisibWave heightAir tempDewpointWater temp
2016-Dec-05 17:08N 37°56' E 023°38'0 0.0
2016-Dec-05 16:33N 37°56' E 023°38'0 0.0
2016-Dec-05 15:33N 37°56' E 023°38'0 0.0
2016-Dec-05 14:33N 37°56' E 023°38'0 0.0
2016-Dec-05 13:33N 37°56' E 023°38'0 0.0
2016-Dec-05 12:33N 37°56' E 023°38'2 1.6
2016-Dec-05 11:33N 37°57' E 023°37'0 0.3
2016-Dec-05 10:33N 37°57' E 023°36'4 4.4
2016-Dec-05 09:34N 38°02' E 023°36'0 0.4
2016-Dec-05 08:33N 38°01' E 023°35'8 8.2
2016-Dec-05 07:34N 37°58' E 023°26'2 2.5
2016-Dec-05 06:33N 37°57' E 023°23'1 1.4
2016-Dec-05 05:33N 37°58' E 023°24'0 0.0
2016-Dec-05 04:33N 37°58' E 023°24'0 0.0
2016-Dec-05 03:33N 37°58' E 023°24'0 0.0
2016-Dec-05 02:33N 37°58' E 023°24'0 0.0
2016-Dec-05 01:33N 37°58' E 023°24'0 0.0
2016-Dec-05 00:33N 37°58' E 023°24'0 0.0
2016-Dec-04 23:33N 37°58' E 023°24'0 0.0
2016-Dec-04 22:33N 37°58' E 023°24'0 0.0
2016-Dec-04 21:33N 37°58' E 023°24'0 0.0
2016-Dec-04 20:33N 37°58' E 023°24'0 0.0
2016-Dec-04 19:33N 37°58' E 023°24'0 0.0
2016-Dec-04 18:33N 37°58' E 023°24'0 0.0
2016-Dec-04 17:34N 37°58' E 023°24'0 0.0
2016-Dec-04 16:33N 37°58' E 023°24'0 0.0
2016-Dec-04 15:33N 37°58' E 023°24'0 0.0
2016-Dec-04 14:33N 37°58' E 023°24'0 0.0
2016-Dec-04 13:33N 37°58' E 023°24'0 0.0
2016-Dec-04 12:33N 37°58' E 023°24'2 1.9
2016-Dec-04 11:33N 37°58' E 023°22'2 1.9
2016-Dec-04 10:33N 37°58' E 023°24'0 0.0
2016-Dec-04 09:33N 37°58' E 023°24'0 0.0
2016-Dec-04 08:33N 37°58' E 023°24'0 0.0
2016-Dec-04 07:33N 37°58' E 023°24'0 0.0
2016-Dec-04 06:33N 37°58' E 023°24'0 0.0
2016-Dec-04 05:33N 37°58' E 023°24'0 0.0
2016-Dec-04 04:33N 37°58' E 023°24'0 0.0
2016-Dec-04 03:33N 37°58' E 023°24'0 0.0
2016-Dec-04 02:33N 37°58' E 023°24'0 0.0
2016-Dec-04 01:33N 37°58' E 023°24'0 0.0
2016-Dec-04 00:33N 37°58' E 023°24'0 0.0
2016-Dec-03 23:33N 37°58' E 023°24'0 0.0
2016-Dec-03 22:33N 37°58' E 023°24'0 0.0
2016-Dec-03 21:33N 37°58' E 023°24'0 0.0
2016-Dec-03 20:33N 37°58' E 023°24'0 0.0
2016-Dec-03 19:33N 37°58' E 023°24'0 0.0
2016-Dec-03 18:33N 37°58' E 023°24'0 0.0
2016-Dec-03 17:33N 37°58' E 023°24'0 0.0
2016-Dec-03 16:33N 37°58' E 023°24'0 0.0
2016-Dec-03 15:33N 37°58' E 023°24'0 0.0
2016-Dec-03 14:33N 37°58' E 023°24'0 0.0
2016-Dec-03 13:33N 37°58' E 023°24'0 0.0
2016-Dec-03 12:33N 37°58' E 023°24'0 0.0
2016-Dec-03 11:33N 37°58' E 023°24'0 0.0
2016-Dec-03 10:33N 37°58' E 023°24'0 0.0
2016-Dec-03 09:33N 37°58' E 023°24'0 0.0
2016-Dec-03 08:33N 37°58' E 023°24'0 0.0
2016-Dec-03 07:33N 37°58' E 023°24'0 0.0
2016-Dec-03 06:33N 37°58' E 023°24'0 0.0
2016-Dec-03 05:33N 37°58' E 023°24'0 0.0
2016-Dec-03 04:34N 37°58' E 023°24'0 0.0
2016-Dec-03 03:33N 37°58' E 023°24'0 0.0
2016-Dec-03 02:33N 37°58' E 023°24'0 0.0
2016-Dec-03 01:33N 37°58' E 023°24'0 0.0
2016-Dec-03 00:34N 37°58' E 023°24'0 0.0
2016-Dec-02 23:34N 37°58' E 023°24'0 0.0
2016-Dec-02 22:33N 37°58' E 023°24'0 0.0
2016-Dec-02 21:33N 37°58' E 023°24'0 0.0
2016-Dec-02 20:33N 37°58' E 023°24'0 0.0
2016-Dec-02 19:33N 37°58' E 023°24'0 0.0
2016-Dec-02 18:33N 37°58' E 023°24'0 0.0
2016-Dec-02 17:34N 37°58' E 023°24'0 0.0
2016-Dec-02 16:33N 37°58' E 023°24'0 0.0
2016-Dec-02 15:33N 37°58' E 023°24'0 0.0
2016-Dec-02 14:33N 37°58' E 023°24'0 0.0
2016-Dec-02 13:34N 37°58' E 023°24'0 0.0
2016-Dec-02 12:33N 37°58' E 023°24'0 0.0
2016-Dec-02 11:33N 37°58' E 023°24'0 0.0
2016-Dec-02 10:33N 37°58' E 023°24'0 0.0
2016-Dec-02 09:33N 37°58' E 023°24'0 0.0
2016-Dec-02 08:33N 37°58' E 023°24'0 0.0
2016-Dec-02 07:33N 37°58' E 023°24'0 0.0
2016-Dec-02 06:33N 37°58' E 023°24'0 0.0
2016-Dec-02 05:33N 37°58' E 023°24'0 0.0
2016-Dec-02 04:33N 37°58' E 023°24'0 0.0
2016-Dec-02 03:33N 37°58' E 023°24'0 0.0
2016-Dec-02 02:33N 37°58' E 023°24'0 0.0
2016-Dec-02 01:34N 37°58' E 023°24'0 0.0
2016-Dec-02 00:33N 37°58' E 023°24'0 0.0
2016-Dec-01 23:33N 37°58' E 023°24'0 0.0
2016-Dec-01 22:33N 37°58' E 023°24'1 0.9
2016-Dec-01 21:33N 37°58' E 023°23'2 1.8
2016-Dec-01 20:33N 37°57' E 023°22'2 1.8
2016-Dec-01 19:34N 37°58' E 023°23'1 1.0
2016-Dec-01 18:33N 37°58' E 023°24'0 0.0
2016-Dec-01 17:33N 37°58' E 023°24'0 0.0
2016-Dec-01 16:34N 37°58' E 023°24'0 0.0
2016-Dec-01 15:33N 37°58' E 023°24'0 0.0
2016-Dec-01 14:33N 37°58' E 023°24'0 0.0
2016-Dec-01 13:34N 37°58' E 023°24'0 0.0
2016-Dec-01 12:33N 37°58' E 023°24'0 0.0
2016-Dec-01 11:33N 37°58' E 023°24'0 0.0
2016-Dec-01 10:33N 37°58' E 023°24'0 0.0
2016-Dec-01 09:33N 37°58' E 023°24'0 0.0
2016-Dec-01 08:33N 37°58' E 023°24'0 0.0
2016-Dec-01 07:33N 37°58' E 023°24'0 0.0
2016-Dec-01 06:33N 37°58' E 023°24'0 0.0
2016-Dec-01 05:33N 37°58' E 023°24'0 0.0
2016-Dec-01 04:33N 37°58' E 023°24'0 0.0
2016-Dec-01 03:34N 37°58' E 023°24'0 0.0
2016-Dec-01 02:33N 37°58' E 023°24'0 0.0
2016-Dec-01 01:34N 37°58' E 023°24'0 0.0
2016-Dec-01 00:34N 37°58' E 023°24'0 0.0
2016-Nov-30 23:33N 37°58' E 023°24'0 0.0
2016-Nov-30 22:33N 37°58' E 023°24'0 0.0
2016-Nov-30 21:33N 37°58' E 023°24'0 0.0
2016-Nov-30 20:33N 37°58' E 023°24'0 0.0
2016-Nov-30 19:33N 37°58' E 023°24'0 0.0
2016-Nov-30 18:33N 37°58' E 023°24'0 0.0
2016-Nov-30 17:33N 37°58' E 023°24'0 0.0
2016-Nov-30 16:33N 37°58' E 023°24'0 0.0
2016-Nov-30 15:33N 37°58' E 023°24'0 0.0
2016-Nov-30 14:33N 37°58' E 023°24'0 0.0
2016-Nov-30 13:33N 37°58' E 023°24'0 0.0
2016-Nov-30 12:33N 37°58' E 023°24'0 0.0
2016-Nov-30 11:33N 37°58' E 023°24'0 0.0
2016-Nov-30 10:33N 37°58' E 023°24'0 0.0
2016-Nov-30 09:34N 37°58' E 023°24'0 0.0
2016-Nov-30 08:34N 37°58' E 023°24'1 1.2
2016-Nov-30 07:33N 37°58' E 023°23'1 1.0
2016-Nov-30 06:34N 37°57' E 023°23'5 4.6
2016-Nov-30 05:33N 37°53' E 023°24'8 8.3
2016-Nov-30 04:33N 37°55' E 023°34'3 3.3
2016-Nov-30 03:33N 37°56' E 023°38'0 0.0
2016-Nov-28 11:33N 37°56' E 023°38'0 0.4
2016-Nov-28 10:34N 37°57' E 023°38'0 0.4
2016-Nov-28 09:34N 37°56' E 023°38'0 0.0
2016-Nov-28 08:33N 37°56' E 023°38'0 0.0
2016-Nov-28 07:25N 37°56' E 023°38'0 0.0
2016-Nov-28 06:34N 37°56' E 023°38'0 0.0
2016-Nov-28 05:33N 37°56' E 023°38'0 0.0
2016-Nov-28 04:33N 37°56' E 023°38'0 0.0
2016-Nov-27 17:04N 37°56' E 023°38'0 0.0
2016-Nov-27 16:33N 37°56' E 023°38'2 2.2
2016-Nov-27 15:33N 37°57' E 023°36'0 0.2
2016-Nov-27 14:34N 37°57' E 023°36'0 0.4
2016-Nov-27 13:34N 37°57' E 023°36'1 1.2
2016-Nov-27 12:33N 37°57' E 023°35'1 0.5
2016-Nov-27 11:34N 37°57' E 023°35'1 1.1
2016-Nov-27 10:33N 37°57' E 023°36'0 0.0
2016-Nov-27 09:33N 37°57' E 023°36'0 0.0
2016-Nov-27 08:33N 37°57' E 023°36'1 1.1
2016-Nov-27 07:34N 37°57' E 023°35'1 1.1
2016-Nov-27 06:33N 37°57' E 023°36'0 0.0
2016-Nov-27 05:33N 37°57' E 023°36'0 0.0
2016-Nov-27 04:34N 37°57' E 023°36'0 0.0
2016-Nov-27 03:34N 37°57' E 023°36'0 0.0
2016-Nov-27 02:34N 37°57' E 023°36'0 0.0
2016-Nov-27 01:34N 37°57' E 023°36'0 0.0
2016-Nov-27 00:33N 37°57' E 023°36'0 0.0
2016-Nov-26 23:33N 37°57' E 023°36'0 0.0
2016-Nov-26 22:34N 37°57' E 023°36'0 0.0
2016-Nov-26 21:34N 37°57' E 023°36'1 0.6
2016-Nov-26 20:33N 37°57' E 023°36'1 0.6
2016-Nov-26 19:33N 37°57' E 023°36'0 0.0
2016-Nov-26 18:33N 37°57' E 023°36'0 0.4
2016-Nov-26 17:33N 37°57' E 023°36'1 1.1
2016-Nov-26 16:34N 37°56' E 023°36'1 1.1
2016-Nov-26 15:34N 37°57' E 023°35'3 2.5
2016-Nov-26 14:34N 37°56' E 023°38'0 0.0
2016-Nov-26 13:34N 37°56' E 023°38'0 0.0
2016-Nov-26 12:33N 37°56' E 023°38'0 0.0
2016-Nov-26 11:34N 37°56' E 023°38'0 0.0
2016-Nov-26 10:34N 37°56' E 023°38'0 0.0
2016-Nov-26 09:33N 37°56' E 023°38'0 0.0
2016-Nov-26 08:33N 37°56' E 023°38'0 0.0
2016-Nov-26 07:33N 37°56' E 023°38'0 0.0
2016-Nov-26 06:31N 37°56' E 023°38'1 0.7
2016-Nov-26 05:34N 37°56' E 023°37'1 0.7
2016-Nov-26 04:33N 37°56' E 023°38'  
Track history (hours):
 
Tides and Currents Weather Stations Pressure Air Temp Water Temp Dewpoint Dewpoint Depression Visibility Wind Speed Wind Dir Waves Ship Positions

Alexander 3

Last reported at 2016-Dec-05 17:08 UTC. Time now 2016-Dec-05 18:38 UTC.
Position N 37°56' E 023°38'.

Length 28 m; draft 5.6 m.

Type: Tug. MMSI: 240733000.

Date/timePositionNaut miles runAvg speedWind from/ knotsBaromVisibWave heightAir tempDewpointWater temp
2016-Dec-05 17:08N 37°56' E 023°38'0 0.0
2016-Dec-05 16:33N 37°56' E 023°38'0 0.0
2016-Dec-05 15:33N 37°56' E 023°38'0 0.0
2016-Dec-05 14:33N 37°56' E 023°38'0 0.0
2016-Dec-05 13:33N 37°56' E 023°38'0 0.0
2016-Dec-05 12:33N 37°56' E 023°38'2 1.6
2016-Dec-05 11:33N 37°57' E 023°37'0 0.3
2016-Dec-05 10:33N 37°57' E 023°36'4 4.4
2016-Dec-05 09:34N 38°02' E 023°36'0 0.4
2016-Dec-05 08:33N 38°01' E 023°35'8 8.2
2016-Dec-05 07:34N 37°58' E 023°26'2 2.5
2016-Dec-05 06:33N 37°57' E 023°23'1 1.4
2016-Dec-05 05:33N 37°58' E 023°24'0 0.0
2016-Dec-05 04:33N 37°58' E 023°24'0 0.0
2016-Dec-05 03:33N 37°58' E 023°24'0 0.0
2016-Dec-05 02:33N 37°58' E 023°24'0 0.0
2016-Dec-05 01:33N 37°58' E 023°24'0 0.0
2016-Dec-05 00:33N 37°58' E 023°24'0 0.0
2016-Dec-04 23:33N 37°58' E 023°24'0 0.0
2016-Dec-04 22:33N 37°58' E 023°24'0 0.0
2016-Dec-04 21:33N 37°58' E 023°24'0 0.0
2016-Dec-04 20:33N 37°58' E 023°24'0 0.0
2016-Dec-04 19:33N 37°58' E 023°24'0 0.0
2016-Dec-04 18:33N 37°58' E 023°24'0 0.0
2016-Dec-04 17:34N 37°58' E 023°24'0 0.0
2016-Dec-04 16:33N 37°58' E 023°24'0 0.0
2016-Dec-04 15:33N 37°58' E 023°24'0 0.0
2016-Dec-04 14:33N 37°58' E 023°24'0 0.0
2016-Dec-04 13:33N 37°58' E 023°24'0 0.0
2016-Dec-04 12:33N 37°58' E 023°24'2 1.9
2016-Dec-04 11:33N 37°58' E 023°22'2 1.9
2016-Dec-04 10:33N 37°58' E 023°24'0 0.0
2016-Dec-04 09:33N 37°58' E 023°24'0 0.0
2016-Dec-04 08:33N 37°58' E 023°24'0 0.0
2016-Dec-04 07:33N 37°58' E 023°24'0 0.0
2016-Dec-04 06:33N 37°58' E 023°24'0 0.0
2016-Dec-04 05:33N 37°58' E 023°24'0 0.0
2016-Dec-04 04:33N 37°58' E 023°24'0 0.0
2016-Dec-04 03:33N 37°58' E 023°24'0 0.0
2016-Dec-04 02:33N 37°58' E 023°24'0 0.0
2016-Dec-04 01:33N 37°58' E 023°24'0 0.0
2016-Dec-04 00:33N 37°58' E 023°24'0 0.0
2016-Dec-03 23:33N 37°58' E 023°24'0 0.0
2016-Dec-03 22:33N 37°58' E 023°24'0 0.0
2016-Dec-03 21:33N 37°58' E 023°24'0 0.0
2016-Dec-03 20:33N 37°58' E 023°24'0 0.0
2016-Dec-03 19:33N 37°58' E 023°24'0 0.0
2016-Dec-03 18:33N 37°58' E 023°24'0 0.0
2016-Dec-03 17:33N 37°58' E 023°24'0 0.0
2016-Dec-03 16:33N 37°58' E 023°24'0 0.0
2016-Dec-03 15:33N 37°58' E 023°24'0 0.0
2016-Dec-03 14:33N 37°58' E 023°24'0 0.0
2016-Dec-03 13:33N 37°58' E 023°24'0 0.0
2016-Dec-03 12:33N 37°58' E 023°24'0 0.0
2016-Dec-03 11:33N 37°58' E 023°24'0 0.0
2016-Dec-03 10:33N 37°58' E 023°24'0 0.0
2016-Dec-03 09:33N 37°58' E 023°24'0 0.0
2016-Dec-03 08:33N 37°58' E 023°24'0 0.0
2016-Dec-03 07:33N 37°58' E 023°24'0 0.0
2016-Dec-03 06:33N 37°58' E 023°24'0 0.0
2016-Dec-03 05:33N 37°58' E 023°24'0 0.0
2016-Dec-03 04:34N 37°58' E 023°24'0 0.0
2016-Dec-03 03:33N 37°58' E 023°24'0 0.0
2016-Dec-03 02:33N 37°58' E 023°24'0 0.0
2016-Dec-03 01:33N 37°58' E 023°24'0 0.0
2016-Dec-03 00:34N 37°58' E 023°24'0 0.0
2016-Dec-02 23:34N 37°58' E 023°24'0 0.0
2016-Dec-02 22:33N 37°58' E 023°24'0 0.0
2016-Dec-02 21:33N 37°58' E 023°24'0 0.0
2016-Dec-02 20:33N 37°58' E 023°24'0 0.0
2016-Dec-02 19:33N 37°58' E 023°24'0 0.0
2016-Dec-02 18:33N 37°58' E 023°24'0 0.0
2016-Dec-02 17:34N 37°58' E 023°24'0 0.0
2016-Dec-02 16:33N 37°58' E 023°24'0 0.0
2016-Dec-02 15:33N 37°58' E 023°24'0 0.0
2016-Dec-02 14:33N 37°58' E 023°24'0 0.0
2016-Dec-02 13:34N 37°58' E 023°24'0 0.0
2016-Dec-02 12:33N 37°58' E 023°24'0 0.0
2016-Dec-02 11:33N 37°58' E 023°24'0 0.0
2016-Dec-02 10:33N 37°58' E 023°24'0 0.0
2016-Dec-02 09:33N 37°58' E 023°24'0 0.0
2016-Dec-02 08:33N 37°58' E 023°24'0 0.0
2016-Dec-02 07:33N 37°58' E 023°24'0 0.0
2016-Dec-02 06:33N 37°58' E 023°24'0 0.0
2016-Dec-02 05:33N 37°58' E 023°24'0 0.0
2016-Dec-02 04:33N 37°58' E 023°24'0 0.0
2016-Dec-02 03:33N 37°58' E 023°24'0 0.0
2016-Dec-02 02:33N 37°58' E 023°24'0 0.0
2016-Dec-02 01:34N 37°58' E 023°24'0 0.0
2016-Dec-02 00:33N 37°58' E 023°24'0 0.0
2016-Dec-01 23:33N 37°58' E 023°24'0 0.0
2016-Dec-01 22:33N 37°58' E 023°24'1 0.9
2016-Dec-01 21:33N 37°58' E 023°23'2 1.8
2016-Dec-01 20:33N 37°57' E 023°22'2 1.8
2016-Dec-01 19:34N 37°58' E 023°23'1 1.0
2016-Dec-01 18:33N 37°58' E 023°24'0 0.0
2016-Dec-01 17:33N 37°58' E 023°24'0 0.0
2016-Dec-01 16:34N 37°58' E 023°24'0 0.0
2016-Dec-01 15:33N 37°58' E 023°24'0 0.0
2016-Dec-01 14:33N 37°58' E 023°24'0 0.0
2016-Dec-01 13:34N 37°58' E 023°24'0 0.0
2016-Dec-01 12:33N 37°58' E 023°24'0 0.0
2016-Dec-01 11:33N 37°58' E 023°24'0 0.0
2016-Dec-01 10:33N 37°58' E 023°24'0 0.0
2016-Dec-01 09:33N 37°58' E 023°24'0 0.0
2016-Dec-01 08:33N 37°58' E 023°24'0 0.0
2016-Dec-01 07:33N 37°58' E 023°24'0 0.0
2016-Dec-01 06:33N 37°58' E 023°24'0 0.0
2016-Dec-01 05:33N 37°58' E 023°24'0 0.0
2016-Dec-01 04:33N 37°58' E 023°24'0 0.0
2016-Dec-01 03:34N 37°58' E 023°24'0 0.0
2016-Dec-01 02:33N 37°58' E 023°24'0 0.0
2016-Dec-01 01:34N 37°58' E 023°24'0 0.0
2016-Dec-01 00:34N 37°58' E 023°24'0 0.0
2016-Nov-30 23:33N 37°58' E 023°24'0 0.0
2016-Nov-30 22:33N 37°58' E 023°24'0 0.0
2016-Nov-30 21:33N 37°58' E 023°24'0 0.0
2016-Nov-30 20:33N 37°58' E 023°24'0 0.0
2016-Nov-30 19:33N 37°58' E 023°24'0 0.0
2016-Nov-30 18:33N 37°58' E 023°24'0 0.0
2016-Nov-30 17:33N 37°58' E 023°24'0 0.0
2016-Nov-30 16:33N 37°58' E 023°24'0 0.0
2016-Nov-30 15:33N 37°58' E 023°24'0 0.0
2016-Nov-30 14:33N 37°58' E 023°24'0 0.0
2016-Nov-30 13:33N 37°58' E 023°24'0 0.0
2016-Nov-30 12:33N 37°58' E 023°24'0 0.0
2016-Nov-30 11:33N 37°58' E 023°24'0 0.0
2016-Nov-30 10:33N 37°58' E 023°24'0 0.0
2016-Nov-30 09:34N 37°58' E 023°24'0 0.0
2016-Nov-30 08:34N 37°58' E 023°24'1 1.2
2016-Nov-30 07:33N 37°58' E 023°23'1 1.0
2016-Nov-30 06:34N 37°57' E 023°23'5 4.6
2016-Nov-30 05:33N 37°53' E 023°24'8 8.3
2016-Nov-30 04:33N 37°55' E 023°34'3 3.3
2016-Nov-30 03:33N 37°56' E 023°38'0 0.0
2016-Nov-28 11:33N 37°56' E 023°38'0 0.4
2016-Nov-28 10:34N 37°57' E 023°38'0 0.4
2016-Nov-28 09:34N 37°56' E 023°38'0 0.0
2016-Nov-28 08:33N 37°56' E 023°38'0 0.0
2016-Nov-28 07:25N 37°56' E 023°38'0 0.0
2016-Nov-28 06:34N 37°56' E 023°38'0 0.0
2016-Nov-28 05:33N 37°56' E 023°38'0 0.0
2016-Nov-28 04:33N 37°56' E 023°38'0 0.0
2016-Nov-27 17:04N 37°56' E 023°38'0 0.0
2016-Nov-27 16:33N 37°56' E 023°38'2 2.2
2016-Nov-27 15:33N 37°57' E 023°36'0 0.2
2016-Nov-27 14:34N 37°57' E 023°36'0 0.4
2016-Nov-27 13:34N 37°57' E 023°36'1 1.2
2016-Nov-27 12:33N 37°57' E 023°35'1 0.5
2016-Nov-27 11:34N 37°57' E 023°35'1 1.1
2016-Nov-27 10:33N 37°57' E 023°36'0 0.0
2016-Nov-27 09:33N 37°57' E 023°36'0 0.0
2016-Nov-27 08:33N 37°57' E 023°36'1 1.1
2016-Nov-27 07:34N 37°57' E 023°35'1 1.1
2016-Nov-27 06:33N 37°57' E 023°36'0 0.0
2016-Nov-27 05:33N 37°57' E 023°36'0 0.0
2016-Nov-27 04:34N 37°57' E 023°36'0 0.0
2016-Nov-27 03:34N 37°57' E 023°36'0 0.0
2016-Nov-27 02:34N 37°57' E 023°36'0 0.0
2016-Nov-27 01:34N 37°57' E 023°36'0 0.0
2016-Nov-27 00:33N 37°57' E 023°36'0 0.0
2016-Nov-26 23:33N 37°57' E 023°36'0 0.0
2016-Nov-26 22:34N 37°57' E 023°36'0 0.0
2016-Nov-26 21:34N 37°57' E 023°36'1 0.6
2016-Nov-26 20:33N 37°57' E 023°36'1 0.6
2016-Nov-26 19:33N 37°57' E 023°36'0 0.0
2016-Nov-26 18:33N 37°57' E 023°36'0 0.4
2016-Nov-26 17:33N 37°57' E 023°36'1 1.1
2016-Nov-26 16:34N 37°56' E 023°36'1 1.1
2016-Nov-26 15:34N 37°57' E 023°35'3 2.5
2016-Nov-26 14:34N 37°56' E 023°38'0 0.0
2016-Nov-26 13:34N 37°56' E 023°38'0 0.0
2016-Nov-26 12:33N 37°56' E 023°38'0 0.0
2016-Nov-26 11:34N 37°56' E 023°38'0 0.0
2016-Nov-26 10:34N 37°56' E 023°38'0 0.0
2016-Nov-26 09:33N 37°56' E 023°38'0 0.0
2016-Nov-26 08:33N 37°56' E 023°38'0 0.0
2016-Nov-26 07:33N 37°56' E 023°38'0 0.0
2016-Nov-26 06:31N 37°56' E 023°38'1 0.7
2016-Nov-26 05:34N 37°56' E 023°37'1 0.7
2016-Nov-26 04:33N 37°56' E 023°38'  

Dump ship's entire track history